sensor_id;sensor_type;location;lat;lon;timestamp;temperature;humidity
2851;DHT22;1433;49.976;8.342;2022-07-17T00:00:24;15.30;99.90
2851;DHT22;1433;49.976;8.342;2022-07-17T00:02:50;15.30;99.90
2851;DHT22;1433;49.976;8.342;2022-07-17T00:05:16;15.30;99.90
2851;DHT22;1433;49.976;8.342;2022-07-17T00:07:43;15.40;99.90
2851;DHT22;1433;49.976;8.342;2022-07-17T00:10:09;15.30;99.90
2851;DHT22;1433;49.976;8.342;2022-07-17T00:12:35;15.20;99.90
2851;DHT22;1433;49.976;8.342;2022-07-17T00:15:02;15.10;99.90
2851;DHT22;1433;49.976;8.342;2022-07-17T00:17:28;15.20;99.90
2851;DHT22;1433;49.976;8.342;2022-07-17T00:19:55;15.20;99.90
2851;DHT22;1433;49.976;8.342;2022-07-17T00:22:21;15.20;99.90
2851;DHT22;1433;49.976;8.342;2022-07-17T00:24:47;15.10;99.90
2851;DHT22;1433;49.976;8.342;2022-07-17T00:27:13;15.20;99.90
2851;DHT22;1433;49.976;8.342;2022-07-17T00:29:39;15.10;99.90
2851;DHT22;1433;49.976;8.342;2022-07-17T00:32:06;15.20;99.90
2851;DHT22;1433;49.976;8.342;2022-07-17T00:34:33;15.20;99.90
2851;DHT22;1433;49.976;8.342;2022-07-17T00:36:59;15.20;99.90
2851;DHT22;1433;49.976;8.342;2022-07-17T00:39:25;15.30;99.90
2851;DHT22;1433;49.976;8.342;2022-07-17T00:41:51;15.20;99.90
2851;DHT22;1433;49.976;8.342;2022-07-17T00:44:17;15.10;99.90
2851;DHT22;1433;49.976;8.342;2022-07-17T00:46:43;15.10;99.90
2851;DHT22;1433;49.976;8.342;2022-07-17T00:49:09;15.00;99.90
2851;DHT22;1433;49.976;8.342;2022-07-17T00:51:35;15.10;99.90
2851;DHT22;1433;49.976;8.342;2022-07-17T00:54:03;15.10;99.90
2851;DHT22;1433;49.976;8.342;2022-07-17T00:56:31;15.00;99.90
2851;DHT22;1433;49.976;8.342;2022-07-17T00:58:57;15.00;99.90
2851;DHT22;1433;49.976;8.342;2022-07-17T01:01:23;15.00;99.90
2851;DHT22;1433;49.976;8.342;2022-07-17T01:03:49;15.00;99.90
2851;DHT22;1433;49.976;8.342;2022-07-17T01:06:15;15.10;99.90
2851;DHT22;1433;49.976;8.342;2022-07-17T01:08:41;15.00;99.90
2851;DHT22;1433;49.976;8.342;2022-07-17T01:11:08;14.90;99.90
2851;DHT22;1433;49.976;8.342;2022-07-17T01:13:34;14.80;99.90
2851;DHT22;1433;49.976;8.342;2022-07-17T01:16:01;14.80;99.90
2851;DHT22;1433;49.976;8.342;2022-07-17T01:18:27;14.70;99.90
2851;DHT22;1433;49.976;8.342;2022-07-17T01:20:53;14.70;99.90
2851;DHT22;1433;49.976;8.342;2022-07-17T01:23:19;14.70;99.90
2851;DHT22;1433;49.976;8.342;2022-07-17T01:25:46;14.50;99.90
2851;DHT22;1433;49.976;8.342;2022-07-17T01:28:13;14.40;99.90
2851;DHT22;1433;49.976;8.342;2022-07-17T01:30:50;14.30;99.90
2851;DHT22;1433;49.976;8.342;2022-07-17T01:33:22;14.10;99.90
2851;DHT22;1433;49.976;8.342;2022-07-17T01:35:48;14.00;99.90
2851;DHT22;1433;49.976;8.342;2022-07-17T01:38:14;14.00;99.90
2851;DHT22;1433;49.976;8.342;2022-07-17T01:40:40;14.00;99.90
2851;DHT22;1433;49.976;8.342;2022-07-17T01:43:06;13.90;99.90
2851;DHT22;1433;49.976;8.342;2022-07-17T01:45:33;13.90;99.90
2851;DHT22;1433;49.976;8.342;2022-07-17T01:47:59;13.80;99.90
2851;DHT22;1433;49.976;8.342;2022-07-17T01:50:25;13.80;99.90
2851;DHT22;1433;49.976;8.342;2022-07-17T01:52:51;13.70;99.90
2851;DHT22;1433;49.976;8.342;2022-07-17T01:55:17;13.90;99.90
2851;DHT22;1433;49.976;8.342;2022-07-17T01:57:45;14.10;99.90
2851;DHT22;1433;49.976;8.342;2022-07-17T02:00:14;14.30;99.90
2851;DHT22;1433;49.976;8.342;2022-07-17T02:02:42;14.20;99.90
2851;DHT22;1433;49.976;8.342;2022-07-17T02:05:09;14.00;99.90
2851;DHT22;1433;49.976;8.342;2022-07-17T02:07:35;13.90;99.90
2851;DHT22;1433;49.976;8.342;2022-07-17T02:10:04;13.90;99.90
2851;DHT22;1433;49.976;8.342;2022-07-17T02:12:30;14.20;99.90
2851;DHT22;1433;49.976;8.342;2022-07-17T02:14:56;14.10;99.90
2851;DHT22;1433;49.976;8.342;2022-07-17T02:17:22;14.00;99.90
2851;DHT22;1433;49.976;8.342;2022-07-17T02:19:48;13.90;99.90
2851;DHT22;1433;49.976;8.342;2022-07-17T02:22:14;13.90;99.90
2851;DHT22;1433;49.976;8.342;2022-07-17T02:24:40;13.90;99.90
2851;DHT22;1433;49.976;8.342;2022-07-17T02:27:06;13.80;99.90
2851;DHT22;1433;49.976;8.342;2022-07-17T02:29:32;13.90;99.90
2851;DHT22;1433;49.976;8.342;2022-07-17T02:31:58;13.90;99.90
2851;DHT22;1433;49.976;8.342;2022-07-17T02:34:24;13.70;99.90
2851;DHT22;1433;49.976;8.342;2022-07-17T02:36:51;13.60;99.90
2851;DHT22;1433;49.976;8.342;2022-07-17T02:39:17;13.50;99.90
2851;DHT22;1433;49.976;8.342;2022-07-17T02:41:43;13.40;99.90
2851;DHT22;1433;49.976;8.342;2022-07-17T02:44:09;13.30;99.90
2851;DHT22;1433;49.976;8.342;2022-07-17T02:46:35;13.40;99.90
2851;DHT22;1433;49.976;8.342;2022-07-17T02:49:01;13.30;99.90
2851;DHT22;1433;49.976;8.342;2022-07-17T02:51:27;13.20;99.90
2851;DHT22;1433;49.976;8.342;2022-07-17T02:53:53;13.10;99.90
2851;DHT22;1433;49.976;8.342;2022-07-17T02:56:19;13.10;99.90
2851;DHT22;1433;49.976;8.342;2022-07-17T02:58:45;13.10;99.90
2851;DHT22;1433;49.976;8.342;2022-07-17T03:01:13;13.00;99.90
2851;DHT22;1433;49.976;8.342;2022-07-17T03:03:39;12.90;99.90
2851;DHT22;1433;49.976;8.342;2022-07-17T03:06:06;13.00;99.90
2851;DHT22;1433;49.976;8.342;2022-07-17T03:08:32;13.00;99.90
2851;DHT22;1433;49.976;8.342;2022-07-17T03:10:58;13.00;99.90
2851;DHT22;1433;49.976;8.342;2022-07-17T03:13:24;13.10;99.90
2851;DHT22;1433;49.976;8.342;2022-07-17T03:15:50;13.10;99.90
2851;DHT22;1433;49.976;8.342;2022-07-17T03:18:16;13.20;99.90
2851;DHT22;1433;49.976;8.342;2022-07-17T03:20:43;13.20;99.90
2851;DHT22;1433;49.976;8.342;2022-07-17T03:23:09;13.10;99.90
2851;DHT22;1433;49.976;8.342;2022-07-17T03:25:35;13.30;99.90
2851;DHT22;1433;49.976;8.342;2022-07-17T03:28:01;13.20;99.90
2851;DHT22;1433;49.976;8.342;2022-07-17T03:30:27;13.20;99.90
2851;DHT22;1433;49.976;8.342;2022-07-17T03:32:53;13.20;99.90
2851;DHT22;1433;49.976;8.342;2022-07-17T03:35:20;13.10;99.90
2851;DHT22;1433;49.976;8.342;2022-07-17T03:37:46;13.00;99.90
2851;DHT22;1433;49.976;8.342;2022-07-17T03:40:12;13.00;99.90
2851;DHT22;1433;49.976;8.342;2022-07-17T03:42:38;13.00;99.90
2851;DHT22;1433;49.976;8.342;2022-07-17T03:45:05;12.90;99.90
2851;DHT22;1433;49.976;8.342;2022-07-17T03:47:31;12.80;99.90
2851;DHT22;1433;49.976;8.342;2022-07-17T03:49:57;12.60;99.90
2851;DHT22;1433;49.976;8.342;2022-07-17T03:52:23;12.50;99.90
2851;DHT22;1433;49.976;8.342;2022-07-17T03:54:49;12.50;99.90
2851;DHT22;1433;49.976;8.342;2022-07-17T03:57:16;12.40;99.90
2851;DHT22;1433;49.976;8.342;2022-07-17T03:59:42;12.40;99.90
2851;DHT22;1433;49.976;8.342;2022-07-17T04:02:08;12.40;99.90
2851;DHT22;1433;49.976;8.342;2022-07-17T04:04:34;12.40;99.90
2851;DHT22;1433;49.976;8.342;2022-07-17T04:07:01;12.50;99.90
2851;DHT22;1433;49.976;8.342;2022-07-17T04:09:27;12.50;99.90
2851;DHT22;1433;49.976;8.342;2022-07-17T04:11:53;12.50;99.90
2851;DHT22;1433;49.976;8.342;2022-07-17T04:14:19;12.50;99.90
2851;DHT22;1433;49.976;8.342;2022-07-17T04:16:45;12.50;99.90
2851;DHT22;1433;49.976;8.342;2022-07-17T04:19:11;12.60;99.90
2851;DHT22;1433;49.976;8.342;2022-07-17T04:21:37;12.70;99.90
2851;DHT22;1433;49.976;8.342;2022-07-17T04:24:04;12.80;99.90
2851;DHT22;1433;49.976;8.342;2022-07-17T04:26:30;12.90;99.90
2851;DHT22;1433;49.976;8.342;2022-07-17T04:28:56;13.00;99.90
2851;DHT22;1433;49.976;8.342;2022-07-17T04:31:22;13.10;99.90
2851;DHT22;1433;49.976;8.342;2022-07-17T04:33:49;13.20;99.90
2851;DHT22;1433;49.976;8.342;2022-07-17T04:36:17;13.20;99.90
2851;DHT22;1433;49.976;8.342;2022-07-17T04:38:43;13.30;99.90
2851;DHT22;1433;49.976;8.342;2022-07-17T04:41:09;13.40;99.90
2851;DHT22;1433;49.976;8.342;2022-07-17T04:43:35;13.50;99.90
2851;DHT22;1433;49.976;8.342;2022-07-17T04:46:01;13.50;99.90
2851;DHT22;1433;49.976;8.342;2022-07-17T04:48:27;13.60;99.90
2851;DHT22;1433;49.976;8.342;2022-07-17T04:50:53;13.60;99.90
2851;DHT22;1433;49.976;8.342;2022-07-17T04:53:19;13.60;99.90
2851;DHT22;1433;49.976;8.342;2022-07-17T04:55:45;13.70;99.90
2851;DHT22;1433;49.976;8.342;2022-07-17T04:58:11;13.70;99.90
2851;DHT22;1433;49.976;8.342;2022-07-17T05:00:38;13.70;99.90
2851;DHT22;1433;49.976;8.342;2022-07-17T05:03:04;13.70;99.90
2851;DHT22;1433;49.976;8.342;2022-07-17T05:05:30;13.80;99.90
2851;DHT22;1433;49.976;8.342;2022-07-17T05:07:58;13.80;99.90
2851;DHT22;1433;49.976;8.342;2022-07-17T05:10:26;13.90;99.90
2851;DHT22;1433;49.976;8.342;2022-07-17T05:12:52;13.90;99.90
2851;DHT22;1433;49.976;8.342;2022-07-17T05:15:18;14.00;99.90
2851;DHT22;1433;49.976;8.342;2022-07-17T05:17:45;14.00;99.90
2851;DHT22;1433;49.976;8.342;2022-07-17T05:20:11;14.20;99.90
2851;DHT22;1433;49.976;8.342;2022-07-17T05:22:37;14.30;99.90
2851;DHT22;1433;49.976;8.342;2022-07-17T05:25:04;14.20;99.90
2851;DHT22;1433;49.976;8.342;2022-07-17T05:27:30;14.40;99.90
2851;DHT22;1433;49.976;8.342;2022-07-17T05:29:56;14.40;99.90
2851;DHT22;1433;49.976;8.342;2022-07-17T05:32:22;14.50;99.90
2851;DHT22;1433;49.976;8.342;2022-07-17T05:34:48;14.70;99.90
2851;DHT22;1433;49.976;8.342;2022-07-17T05:37:15;14.80;99.90
2851;DHT22;1433;49.976;8.342;2022-07-17T05:39:41;14.90;99.90
2851;DHT22;1433;49.976;8.342;2022-07-17T05:42:07;15.00;99.90
2851;DHT22;1433;49.976;8.342;2022-07-17T05:44:33;15.20;99.90
2851;DHT22;1433;49.976;8.342;2022-07-17T05:46:59;15.20;99.90
2851;DHT22;1433;49.976;8.342;2022-07-17T05:49:26;15.20;99.90
2851;DHT22;1433;49.976;8.342;2022-07-17T05:51:52;15.30;99.90
2851;DHT22;1433;49.976;8.342;2022-07-17T05:54:18;15.50;99.90
2851;DHT22;1433;49.976;8.342;2022-07-17T05:56:44;15.70;99.90
2851;DHT22;1433;49.976;8.342;2022-07-17T05:59:10;15.90;99.90
2851;DHT22;1433;49.976;8.342;2022-07-17T06:01:36;16.00;99.90
2851;DHT22;1433;49.976;8.342;2022-07-17T06:04:02;16.00;99.90
2851;DHT22;1433;49.976;8.342;2022-07-17T06:06:28;16.10;99.90
2851;DHT22;1433;49.976;8.342;2022-07-17T06:08:54;16.30;99.90
2851;DHT22;1433;49.976;8.342;2022-07-17T06:11:21;16.30;99.90
2851;DHT22;1433;49.976;8.342;2022-07-17T06:13:47;16.40;99.90
2851;DHT22;1433;49.976;8.342;2022-07-17T06:16:13;16.50;99.90
2851;DHT22;1433;49.976;8.342;2022-07-17T06:18:39;16.50;99.90
2851;DHT22;1433;49.976;8.342;2022-07-17T06:21:05;16.60;99.90
2851;DHT22;1433;49.976;8.342;2022-07-17T06:23:31;16.70;99.90
2851;DHT22;1433;49.976;8.342;2022-07-17T06:25:58;16.80;99.90
2851;DHT22;1433;49.976;8.342;2022-07-17T06:28:25;16.80;99.90
2851;DHT22;1433;49.976;8.342;2022-07-17T06:30:51;16.90;99.90
2851;DHT22;1433;49.976;8.342;2022-07-17T06:33:17;17.00;99.90
2851;DHT22;1433;49.976;8.342;2022-07-17T06:35:43;17.10;99.90
2851;DHT22;1433;49.976;8.342;2022-07-17T06:38:09;17.20;99.90
2851;DHT22;1433;49.976;8.342;2022-07-17T06:40:36;17.30;99.90
2851;DHT22;1433;49.976;8.342;2022-07-17T06:43:05;17.40;99.90
2851;DHT22;1433;49.976;8.342;2022-07-17T06:45:31;17.50;99.90
2851;DHT22;1433;49.976;8.342;2022-07-17T06:47:57;17.60;99.90
2851;DHT22;1433;49.976;8.342;2022-07-17T06:50:24;17.70;99.90
2851;DHT22;1433;49.976;8.342;2022-07-17T06:52:50;17.80;99.90
2851;DHT22;1433;49.976;8.342;2022-07-17T06:55:16;17.90;99.90
2851;DHT22;1433;49.976;8.342;2022-07-17T06:57:42;18.00;99.90
2851;DHT22;1433;49.976;8.342;2022-07-17T07:00:09;18.10;99.90
2851;DHT22;1433;49.976;8.342;2022-07-17T07:02:36;18.20;99.90
2851;DHT22;1433;49.976;8.342;2022-07-17T07:05:03;18.30;99.90
2851;DHT22;1433;49.976;8.342;2022-07-17T07:07:30;18.40;99.90
2851;DHT22;1433;49.976;8.342;2022-07-17T07:09:56;18.50;99.90
2851;DHT22;1433;49.976;8.342;2022-07-17T07:12:22;18.60;99.90
2851;DHT22;1433;49.976;8.342;2022-07-17T07:14:48;18.70;99.90
2851;DHT22;1433;49.976;8.342;2022-07-17T07:17:14;18.80;99.90
2851;DHT22;1433;49.976;8.342;2022-07-17T07:19:40;18.90;99.90
2851;DHT22;1433;49.976;8.342;2022-07-17T07:22:06;18.90;99.90
2851;DHT22;1433;49.976;8.342;2022-07-17T07:24:33;19.00;99.90
2851;DHT22;1433;49.976;8.342;2022-07-17T07:26:59;19.10;99.90
2851;DHT22;1433;49.976;8.342;2022-07-17T07:29:25;19.20;99.90
2851;DHT22;1433;49.976;8.342;2022-07-17T07:31:51;19.30;99.90
2851;DHT22;1433;49.976;8.342;2022-07-17T07:34:19;19.30;99.90
2851;DHT22;1433;49.976;8.342;2022-07-17T07:36:45;19.40;99.90
2851;DHT22;1433;49.976;8.342;2022-07-17T07:39:11;19.50;99.90
2851;DHT22;1433;49.976;8.342;2022-07-17T07:41:38;19.60;99.90
2851;DHT22;1433;49.976;8.342;2022-07-17T07:44:04;19.70;99.90
2851;DHT22;1433;49.976;8.342;2022-07-17T07:46:30;19.80;99.90
2851;DHT22;1433;49.976;8.342;2022-07-17T07:48:56;19.90;99.90
2851;DHT22;1433;49.976;8.342;2022-07-17T07:51:23;20.00;99.90
2851;DHT22;1433;49.976;8.342;2022-07-17T07:53:51;20.20;99.90
2851;DHT22;1433;49.976;8.342;2022-07-17T07:56:17;20.10;99.90
2851;DHT22;1433;49.976;8.342;2022-07-17T07:58:43;20.20;99.90
2851;DHT22;1433;49.976;8.342;2022-07-17T08:01:09;20.30;99.90
2851;DHT22;1433;49.976;8.342;2022-07-17T08:03:36;20.40;99.90
2851;DHT22;1433;49.976;8.342;2022-07-17T08:06:02;20.50;99.90
2851;DHT22;1433;49.976;8.342;2022-07-17T08:08:28;20.70;99.90
2851;DHT22;1433;49.976;8.342;2022-07-17T08:10:54;20.70;99.90
2851;DHT22;1433;49.976;8.342;2022-07-17T08:13:20;20.80;99.90
2851;DHT22;1433;49.976;8.342;2022-07-17T08:15:47;20.80;99.90
2851;DHT22;1433;49.976;8.342;2022-07-17T08:18:13;20.90;99.90
2851;DHT22;1433;49.976;8.342;2022-07-17T08:20:39;21.00;99.90
2851;DHT22;1433;49.976;8.342;2022-07-17T08:23:05;21.10;99.90
2851;DHT22;1433;49.976;8.342;2022-07-17T08:25:32;21.20;99.90
2851;DHT22;1433;49.976;8.342;2022-07-17T08:27:58;21.20;99.90
2851;DHT22;1433;49.976;8.342;2022-07-17T08:30:25;21.30;99.90
2851;DHT22;1433;49.976;8.342;2022-07-17T08:32:52;21.40;99.90
2851;DHT22;1433;49.976;8.342;2022-07-17T08:35:18;21.60;99.90
2851;DHT22;1433;49.976;8.342;2022-07-17T08:37:52;21.70;99.90
2851;DHT22;1433;49.976;8.342;2022-07-17T08:40:23;21.80;99.90
2851;DHT22;1433;49.976;8.342;2022-07-17T08:42:51;21.90;99.90
2851;DHT22;1433;49.976;8.342;2022-07-17T08:45:18;22.00;99.90
2851;DHT22;1433;49.976;8.342;2022-07-17T08:47:45;22.00;99.90
2851;DHT22;1433;49.976;8.342;2022-07-17T08:50:12;22.10;99.90
2851;DHT22;1433;49.976;8.342;2022-07-17T08:52:40;22.10;99.90
2851;DHT22;1433;49.976;8.342;2022-07-17T08:55:11;22.20;99.90
2851;DHT22;1433;49.976;8.342;2022-07-17T08:57:39;22.30;99.90
2851;DHT22;1433;49.976;8.342;2022-07-17T09:00:06;22.40;99.90
2851;DHT22;1433;49.976;8.342;2022-07-17T09:02:33;22.50;99.90
2851;DHT22;1433;49.976;8.342;2022-07-17T09:05:01;22.60;99.90
2851;DHT22;1433;49.976;8.342;2022-07-17T09:07:27;22.60;99.90
2851;DHT22;1433;49.976;8.342;2022-07-17T09:09:54;22.70;99.90
2851;DHT22;1433;49.976;8.342;2022-07-17T09:12:25;22.80;99.90
2851;DHT22;1433;49.976;8.342;2022-07-17T09:14:52;23.00;99.90
2851;DHT22;1433;49.976;8.342;2022-07-17T09:17:19;23.10;99.90
2851;DHT22;1433;49.976;8.342;2022-07-17T09:19:45;23.20;99.90
2851;DHT22;1433;49.976;8.342;2022-07-17T09:22:17;23.10;99.90
2851;DHT22;1433;49.976;8.342;2022-07-17T09:24:53;23.20;99.90
2851;DHT22;1433;49.976;8.342;2022-07-17T09:30:12;23.40;99.90
2851;DHT22;1433;49.976;8.342;2022-07-17T09:32:42;23.50;99.90
2851;DHT22;1433;49.976;8.342;2022-07-17T09:35:09;23.50;99.90
2851;DHT22;1433;49.976;8.342;2022-07-17T09:37:37;23.60;99.90
2851;DHT22;1433;49.976;8.342;2022-07-17T09:40:10;23.70;99.90
2851;DHT22;1433;49.976;8.342;2022-07-17T09:42:39;23.60;99.90
2851;DHT22;1433;49.976;8.342;2022-07-17T09:45:07;23.50;99.90
2851;DHT22;1433;49.976;8.342;2022-07-17T09:47:37;23.70;99.90
2851;DHT22;1433;49.976;8.342;2022-07-17T09:50:05;23.70;99.90
2851;DHT22;1433;49.976;8.342;2022-07-17T09:52:33;23.40;99.90
2851;DHT22;1433;49.976;8.342;2022-07-17T09:55:01;23.60;99.90
2851;DHT22;1433;49.976;8.342;2022-07-17T09:57:29;23.60;99.90
2851;DHT22;1433;49.976;8.342;2022-07-17T10:00:07;23.60;99.90
2851;DHT22;1433;49.976;8.342;2022-07-17T10:02:42;23.70;99.90
2851;DHT22;1433;49.976;8.342;2022-07-17T10:05:12;23.90;99.90
2851;DHT22;1433;49.976;8.342;2022-07-17T10:07:43;24.20;99.90
2851;DHT22;1433;49.976;8.342;2022-07-17T10:10:12;24.30;99.90
2851;DHT22;1433;49.976;8.342;2022-07-17T10:12:42;24.50;99.90
2851;DHT22;1433;49.976;8.342;2022-07-17T10:15:09;24.70;99.90
2851;DHT22;1433;49.976;8.342;2022-07-17T10:17:36;24.90;99.90
2851;DHT22;1433;49.976;8.342;2022-07-17T10:20:03;24.90;99.90
2851;DHT22;1433;49.976;8.342;2022-07-17T10:22:45;24.90;99.90
2851;DHT22;1433;49.976;8.342;2022-07-17T10:25:14;24.80;99.90
2851;DHT22;1433;49.976;8.342;2022-07-17T10:27:51;24.60;99.90
2851;DHT22;1433;49.976;8.342;2022-07-17T10:30:26;24.50;99.90
2851;DHT22;1433;49.976;8.342;2022-07-17T10:32:59;24.60;99.90
2851;DHT22;1433;49.976;8.342;2022-07-17T10:35:25;24.40;99.90
2851;DHT22;1433;49.976;8.342;2022-07-17T10:37:52;24.50;99.90
2851;DHT22;1433;49.976;8.342;2022-07-17T10:42:59;25.00;99.90
2851;DHT22;1433;49.976;8.342;2022-07-17T10:45:37;25.40;99.90
2851;DHT22;1433;49.976;8.342;2022-07-17T10:48:05;27.30;99.90
2851;DHT22;1433;49.976;8.342;2022-07-17T10:50:35;29.20;99.90
2851;DHT22;1433;49.976;8.342;2022-07-17T10:55:40;31.70;99.90
2851;DHT22;1433;49.976;8.342;2022-07-17T11:00:57;32.90;99.90
2851;DHT22;1433;49.976;8.342;2022-07-17T11:03:24;32.90;99.90
2851;DHT22;1433;49.976;8.342;2022-07-17T11:05:50;32.90;99.90
2851;DHT22;1433;49.976;8.342;2022-07-17T11:08:16;33.90;99.90
2851;DHT22;1433;49.976;8.342;2022-07-17T11:10:43;35.20;99.90
2851;DHT22;1433;49.976;8.342;2022-07-17T11:13:14;36.20;99.90
2851;DHT22;1433;49.976;8.342;2022-07-17T11:15:44;36.30;99.90
2851;DHT22;1433;49.976;8.342;2022-07-17T11:18:16;37.20;99.90
2851;DHT22;1433;49.976;8.342;2022-07-17T11:20:54;38.10;99.90
2851;DHT22;1433;49.976;8.342;2022-07-17T11:23:22;38.60;99.90
2851;DHT22;1433;49.976;8.342;2022-07-17T11:26:00;38.50;99.90
2851;DHT22;1433;49.976;8.342;2022-07-17T11:28:33;39.50;99.90
2851;DHT22;1433;49.976;8.342;2022-07-17T11:31:01;40.00;99.90
2851;DHT22;1433;49.976;8.342;2022-07-17T11:33:27;38.40;99.90
2851;DHT22;1433;49.976;8.342;2022-07-17T11:35:53;38.90;99.90
2851;DHT22;1433;49.976;8.342;2022-07-17T11:38:27;38.70;99.90
2851;DHT22;1433;49.976;8.342;2022-07-17T11:40:54;36.40;99.90
2851;DHT22;1433;49.976;8.342;2022-07-17T11:43:20;36.00;99.90
2851;DHT22;1433;49.976;8.342;2022-07-17T11:45:47;34.40;99.90
2851;DHT22;1433;49.976;8.342;2022-07-17T11:48:13;34.50;99.90
2851;DHT22;1433;49.976;8.342;2022-07-17T11:50:39;35.40;99.90
2851;DHT22;1433;49.976;8.342;2022-07-17T11:53:06;37.00;99.90
2851;DHT22;1433;49.976;8.342;2022-07-17T11:55:36;38.10;99.90
2851;DHT22;1433;49.976;8.342;2022-07-17T11:58:02;39.10;99.90
2851;DHT22;1433;49.976;8.342;2022-07-17T12:00:29;40.20;99.90
2851;DHT22;1433;49.976;8.342;2022-07-17T12:03:03;40.90;99.90
2851;DHT22;1433;49.976;8.342;2022-07-17T12:05:32;41.20;99.90
2851;DHT22;1433;49.976;8.342;2022-07-17T12:07:58;41.20;99.90
2851;DHT22;1433;49.976;8.342;2022-07-17T12:10:27;41.60;99.90
2851;DHT22;1433;49.976;8.342;2022-07-17T12:13:01;41.40;99.90
2851;DHT22;1433;49.976;8.342;2022-07-17T12:15:42;40.50;99.90
2851;DHT22;1433;49.976;8.342;2022-07-17T12:18:26;38.80;99.90
2851;DHT22;1433;49.976;8.342;2022-07-17T12:20:56;38.10;99.90
2851;DHT22;1433;49.976;8.342;2022-07-17T12:23:37;36.60;99.90
2851;DHT22;1433;49.976;8.342;2022-07-17T12:26:08;38.00;99.90
2851;DHT22;1433;49.976;8.342;2022-07-17T12:28:35;39.10;99.90
2851;DHT22;1433;49.976;8.342;2022-07-17T12:31:02;39.60;99.90
2851;DHT22;1433;49.976;8.342;2022-07-17T12:33:29;40.10;99.90
2851;DHT22;1433;49.976;8.342;2022-07-17T12:35:55;40.50;99.90
2851;DHT22;1433;49.976;8.342;2022-07-17T12:38:21;41.00;99.90
2851;DHT22;1433;49.976;8.342;2022-07-17T12:40:47;41.10;99.90
2851;DHT22;1433;49.976;8.342;2022-07-17T12:43:13;41.30;99.90
2851;DHT22;1433;49.976;8.342;2022-07-17T12:45:39;40.70;99.90
2851;DHT22;1433;49.976;8.342;2022-07-17T12:48:06;40.60;99.90
2851;DHT22;1433;49.976;8.342;2022-07-17T12:50:32;40.60;99.90
2851;DHT22;1433;49.976;8.342;2022-07-17T12:52:58;39.40;99.90
2851;DHT22;1433;49.976;8.342;2022-07-17T12:55:24;37.40;99.90
2851;DHT22;1433;49.976;8.342;2022-07-17T12:57:51;35.60;99.90
2851;DHT22;1433;49.976;8.342;2022-07-17T13:00:17;36.30;99.90
2851;DHT22;1433;49.976;8.342;2022-07-17T13:02:43;37.50;99.90
2851;DHT22;1433;49.976;8.342;2022-07-17T13:05:09;38.30;99.90
2851;DHT22;1433;49.976;8.342;2022-07-17T13:07:35;39.30;99.90
2851;DHT22;1433;49.976;8.342;2022-07-17T13:10:02;39.40;99.90
2851;DHT22;1433;49.976;8.342;2022-07-17T13:12:29;40.10;99.90
2851;DHT22;1433;49.976;8.342;2022-07-17T13:14:55;40.60;99.90
2851;DHT22;1433;49.976;8.342;2022-07-17T13:17:21;41.30;99.90
2851;DHT22;1433;49.976;8.342;2022-07-17T13:19:47;41.80;99.90
2851;DHT22;1433;49.976;8.342;2022-07-17T13:22:13;41.80;99.90
2851;DHT22;1433;49.976;8.342;2022-07-17T13:27:07;42.50;99.90
2851;DHT22;1433;49.976;8.342;2022-07-17T13:29:33;41.60;99.90
2851;DHT22;1433;49.976;8.342;2022-07-17T13:32:00;41.00;99.90
2851;DHT22;1433;49.976;8.342;2022-07-17T13:34:26;40.90;99.90
2851;DHT22;1433;49.976;8.342;2022-07-17T13:36:52;40.90;99.90
2851;DHT22;1433;49.976;8.342;2022-07-17T13:39:18;41.10;99.90
2851;DHT22;1433;49.976;8.342;2022-07-17T13:41:45;38.80;99.90
2851;DHT22;1433;49.976;8.342;2022-07-17T13:44:11;38.80;99.90
2851;DHT22;1433;49.976;8.342;2022-07-17T13:46:37;38.10;99.90
2851;DHT22;1433;49.976;8.342;2022-07-17T13:49:03;39.10;99.90
2851;DHT22;1433;49.976;8.342;2022-07-17T13:51:30;39.90;99.90
2851;DHT22;1433;49.976;8.342;2022-07-17T13:53:57;40.50;99.90
2851;DHT22;1433;49.976;8.342;2022-07-17T13:56:23;40.90;99.90
2851;DHT22;1433;49.976;8.342;2022-07-17T13:58:50;40.70;99.90
2851;DHT22;1433;49.976;8.342;2022-07-17T14:01:16;39.90;99.90
2851;DHT22;1433;49.976;8.342;2022-07-17T14:03:42;40.40;99.90
2851;DHT22;1433;49.976;8.342;2022-07-17T14:06:08;40.90;99.90
2851;DHT22;1433;49.976;8.342;2022-07-17T14:08:35;41.20;99.90
2851;DHT22;1433;49.976;8.342;2022-07-17T14:11:03;41.70;99.90
2851;DHT22;1433;49.976;8.342;2022-07-17T14:13:29;41.90;99.90
2851;DHT22;1433;49.976;8.342;2022-07-17T14:15:56;41.50;99.90
2851;DHT22;1433;49.976;8.342;2022-07-17T14:18:22;41.10;99.90
2851;DHT22;1433;49.976;8.342;2022-07-17T14:20:48;40.00;99.90
2851;DHT22;1433;49.976;8.342;2022-07-17T14:23:14;39.50;99.90
2851;DHT22;1433;49.976;8.342;2022-07-17T14:25:43;39.80;99.90
2851;DHT22;1433;49.976;8.342;2022-07-17T14:28:10;40.40;99.90
2851;DHT22;1433;49.976;8.342;2022-07-17T14:30:38;40.00;99.90
2851;DHT22;1433;49.976;8.342;2022-07-17T14:33:04;40.50;99.90
2851;DHT22;1433;49.976;8.342;2022-07-17T14:35:31;41.10;99.90
2851;DHT22;1433;49.976;8.342;2022-07-17T14:37:58;41.40;99.90
2851;DHT22;1433;49.976;8.342;2022-07-17T14:40:25;41.30;99.90
2851;DHT22;1433;49.976;8.342;2022-07-17T14:42:51;38.30;99.90
2851;DHT22;1433;49.976;8.342;2022-07-17T14:45:17;38.20;99.90
2851;DHT22;1433;49.976;8.342;2022-07-17T14:47:44;37.00;99.90
2851;DHT22;1433;49.976;8.342;2022-07-17T14:50:11;38.10;99.90
2851;DHT22;1433;49.976;8.342;2022-07-17T14:52:37;39.20;99.90
2851;DHT22;1433;49.976;8.342;2022-07-17T14:55:05;39.50;99.90
2851;DHT22;1433;49.976;8.342;2022-07-17T14:57:32;38.00;99.90
2851;DHT22;1433;49.976;8.342;2022-07-17T14:59:58;38.60;99.90
2851;DHT22;1433;49.976;8.342;2022-07-17T15:02:24;39.60;99.90
2851;DHT22;1433;49.976;8.342;2022-07-17T15:04:50;40.40;99.90
2851;DHT22;1433;49.976;8.342;2022-07-17T15:07:17;40.90;99.90
2851;DHT22;1433;49.976;8.342;2022-07-17T15:09:43;41.30;99.90
2851;DHT22;1433;49.976;8.342;2022-07-17T15:12:09;41.50;99.90
2851;DHT22;1433;49.976;8.342;2022-07-17T15:14:35;41.00;99.90
2851;DHT22;1433;49.976;8.342;2022-07-17T15:17:01;40.60;99.90
2851;DHT22;1433;49.976;8.342;2022-07-17T15:19:28;39.70;99.90
2851;DHT22;1433;49.976;8.342;2022-07-17T15:21:54;38.50;99.90
2851;DHT22;1433;49.976;8.342;2022-07-17T15:24:20;39.40;99.90
2851;DHT22;1433;49.976;8.342;2022-07-17T15:26:47;40.40;99.90
2851;DHT22;1433;49.976;8.342;2022-07-17T15:29:15;40.90;99.90
2851;DHT22;1433;49.976;8.342;2022-07-17T15:31:42;41.00;99.90
2851;DHT22;1433;49.976;8.342;2022-07-17T15:34:09;41.00;99.90
2851;DHT22;1433;49.976;8.342;2022-07-17T15:36:35;41.10;99.90
2851;DHT22;1433;49.976;8.342;2022-07-17T15:39:01;40.80;99.90
2851;DHT22;1433;49.976;8.342;2022-07-17T15:41:29;40.40;99.90
2851;DHT22;1433;49.976;8.342;2022-07-17T15:43:55;40.80;99.90
2851;DHT22;1433;49.976;8.342;2022-07-17T15:46:21;40.90;99.90
2851;DHT22;1433;49.976;8.342;2022-07-17T15:48:48;40.90;99.90
2851;DHT22;1433;49.976;8.342;2022-07-17T15:51:14;40.70;99.90
2851;DHT22;1433;49.976;8.342;2022-07-17T15:53:41;40.90;99.90
2851;DHT22;1433;49.976;8.342;2022-07-17T15:56:08;40.90;99.90
2851;DHT22;1433;49.976;8.342;2022-07-17T15:58:34;41.20;99.90
2851;DHT22;1433;49.976;8.342;2022-07-17T16:01:00;41.30;99.90
2851;DHT22;1433;49.976;8.342;2022-07-17T16:03:27;41.20;99.90
2851;DHT22;1433;49.976;8.342;2022-07-17T16:05:53;41.40;99.90
2851;DHT22;1433;49.976;8.342;2022-07-17T16:08:19;41.60;99.90
2851;DHT22;1433;49.976;8.342;2022-07-17T16:10:46;41.40;99.90
2851;DHT22;1433;49.976;8.342;2022-07-17T16:13:12;41.60;99.90